Time;durP1;ratioP1;P1;durP2;ratioP2;P2;SDS_P1;SDS_P2;PMS_P1;PMS_P2;Temp;Humidity;BMP_temperature;BMP_pressure;BME280_temperature;BME280_humidity;BME280_pressure;Samples;Min_cycle;Max_cycle;Signal;HPM_P1;HPM_P2
2022/09/11 00:01:46;;;;;;;8.15;5.78;;;;;;;21.95;56.91;96104.47;5096965;28;20048;-60
2022/09/11 00:04:13;;;;;;;10.00;5.57;;;;;;;21.99;56.87;96105.88;5096905;28;20051;-61
2022/09/11 00:06:40;;;;;;;8.82;6.72;;;;;;;21.97;57.72;96099.81;5096794;28;20047;-60
2022/09/11 00:09:09;;;;;;;10.00;6.72;;;;;;;21.99;57.49;96108.53;5096729;28;20059;-60
2022/09/11 00:11:39;;;;;;;12.43;6.63;;;;;;;21.97;57.51;96110.47;5096595;28;20436;-60
2022/09/11 00:14:06;;;;;;;13.90;6.38;;;;;;;22.01;57.95;96108.38;5096697;28;20528;-60
2022/09/11 00:16:37;;;;;;;11.90;6.95;;;;;;;21.98;57.56;96117.50;5096803;28;20105;-60
2022/09/11 00:19:08;;;;;;;10.60;6.53;;;;;;;21.98;58.03;96109.53;5096506;28;20052;-60
2022/09/11 00:21:35;;;;;;;14.18;7.07;;;;;;;21.92;58.30;96118.06;5096638;28;20050;-60
2022/09/11 00:24:02;;;;;;;8.90;6.15;;;;;;;21.93;57.87;96130.38;5096480;28;20048;-59
2022/09/11 00:26:31;;;;;;;9.10;6.55;;;;;;;21.87;57.87;96128.28;5096555;28;20405;-59
2022/09/11 00:29:00;;;;;;;11.35;6.45;;;;;;;21.87;57.04;96131.78;5096797;28;20126;-59
2022/09/11 00:31:29;;;;;;;9.00;6.47;;;;;;;21.87;57.37;96126.47;5096662;28;20048;-59
2022/09/11 00:33:57;;;;;;;9.68;6.35;;;;;;;21.80;56.89;96130.66;5096457;28;20052;-59
2022/09/11 00:36:26;;;;;;;10.35;7.10;;;;;;;21.85;57.70;96120.44;5096265;28;20101;-59
2022/09/11 00:38:54;;;;;;;8.20;6.70;;;;;;;21.84;57.93;96122.25;5096281;28;20044;-60
2022/09/11 00:41:24;;;;;;;8.15;6.28;;;;;;;21.84;57.04;96124.06;5096342;28;20044;-60
2022/09/11 00:44:00;;;;;;;7.28;6.53;;;;;;;21.86;57.41;96131.91;5096317;28;20139;-60
2022/09/11 00:46:34;;;;;;;8.13;5.68;;;;;;;21.84;57.98;96132.06;5096180;28;20577;-60
2022/09/11 00:49:07;;;;;;;9.60;6.25;;;;;;;21.77;57.78;96133.59;5096147;28;20052;-60
2022/09/11 00:51:37;;;;;;;8.27;5.47;;;;;;;21.74;58.28;96134.69;5096081;28;20055;-61
2022/09/11 00:54:05;;;;;;;9.77;6.28;;;;;;;21.73;59.06;96132.16;5096164;28;20533;-61
2022/09/11 00:56:37;;;;;;;8.90;6.38;;;;;;;21.67;59.95;96131.72;5095989;28;20075;-60
2022/09/11 00:59:07;;;;;;;7.32;6.50;;;;;;;21.58;59.50;96140.53;5094800;28;20140;-61
2022/09/11 01:01:34;;;;;;;10.68;7.13;;;;;;;21.48;60.79;96135.19;5096080;28;20052;-60
2022/09/11 01:04:04;;;;;;;13.15;6.50;;;;;;;21.39;59.05;96136.00;5095853;28;20049;-60
2022/09/11 01:06:32;;;;;;;11.38;7.28;;;;;;;21.35;59.38;96135.47;5095858;28;20047;-59
2022/09/11 01:08:59;;;;;;;10.93;6.35;;;;;;;21.32;58.34;96127.75;5095735;28;20052;-60
2022/09/11 01:11:44;;;;;;;10.35;6.63;;;;;;;21.30;60.16;96130.53;5095418;28;20047;-59
2022/09/11 01:14:30;;;;;;;13.20;7.15;;;;;;;21.23;60.35;96123.22;5095610;28;20050;-60
2022/09/11 01:17:07;;;;;;;7.75;6.35;;;;;;;21.06;58.53;96120.25;5095502;28;20048;-59
2022/09/11 01:19:46;;;;;;;9.07;6.32;;;;;;;21.01;58.25;96117.97;5095613;28;20048;-60
2022/09/11 01:22:35;;;;;;;11.35;7.18;;;;;;;20.95;59.26;96124.69;5095260;28;20482;-60
2022/09/11 01:25:23;;;;;;;14.40;7.60;;;;;;;20.94;59.04;96124.81;5095492;28;20142;-60
2022/09/11 01:27:53;;;;;;;8.95;7.35;;;;;;;20.91;59.74;96119.75;5095416;28;20547;-60
2022/09/11 01:30:22;;;;;;;13.02;7.38;;;;;;;20.83;60.80;96118.56;5095456;28;20040;-60
2022/09/11 01:33:12;;;;;;;10.52;8.18;;;;;;;20.74;61.15;96121.19;5095269;28;20047;-61
2022/09/11 01:35:56;;;;;;;8.88;7.15;;;;;;;20.64;60.74;96114.00;5095285;28;20120;-60
2022/09/11 01:38:30;;;;;;;12.20;7.38;;;;;;;20.59;60.80;96121.56;5095302;28;20051;-60
2022/09/11 01:41:02;;;;;;;8.63;6.72;;;;;;;20.44;61.73;96113.91;5095169;28;20044;-61
2022/09/11 01:43:35;;;;;;;12.25;7.63;;;;;;;20.35;61.27;96113.84;5095010;28;20147;-60
2022/09/11 01:46:06;;;;;;;11.25;8.23;;;;;;;20.25;62.10;96111.13;5095109;28;20070;-60
2022/09/11 01:48:39;;;;;;;9.23;7.38;;;;;;;20.13;62.04;96105.03;5094923;28;20040;-60
2022/09/11 01:51:12;;;;;;;11.88;7.95;;;;;;;20.05;61.84;96111.81;5095020;28;20134;-60
2022/09/11 01:53:42;;;;;;;10.38;8.00;;;;;;;19.97;62.46;96105.44;5094886;28;20130;-60
2022/09/11 01:56:15;;;;;;;12.10;8.35;;;;;;;19.81;63.13;96106.72;5094846;28;20086;-60
2022/09/11 01:58:47;;;;;;;8.52;7.65;;;;;;;19.72;63.07;96099.53;5094832;28;20052;-60
2022/09/11 02:01:20;;;;;;;9.48;7.45;;;;;;;19.59;63.61;96097.88;5094697;28;20048;-61
2022/09/11 02:03:54;;;;;;;9.93;7.47;;;;;;;19.49;63.27;96099.59;5094491;28;20142;-60
2022/09/11 02:06:28;;;;;;;11.07;7.65;;;;;;;19.37;63.41;96096.97;5094733;28;20131;-60
2022/09/11 02:08:59;;;;;;;11.70;7.10;;;;;;;19.28;63.20;96098.56;5094454;28;20054;-60
2022/09/11 02:11:29;;;;;;;11.90;7.50;;;;;;;19.09;63.56;96111.59;5094227;28;20147;-60
2022/09/11 02:14:05;;;;;;;9.95;7.80;;;;;;;18.92;64.31;96101.34;5094526;28;20055;-59
2022/09/11 02:16:40;;;;;;;10.75;7.28;;;;;;;18.75;64.63;96109.78;5094484;28;20048;-59
2022/09/11 02:19:10;;;;;;;9.30;7.28;;;;;;;18.58;64.63;96113.72;5094325;28;20048;-60
2022/09/11 02:21:38;;;;;;;8.23;6.47;;;;;;;18.44;65.06;96111.19;5094326;28;20040;-60
2022/09/11 02:24:05;;;;;;;8.68;6.65;;;;;;;18.29;64.95;96101.78;5094199;28;20455;-59
2022/09/11 02:26:37;;;;;;;10.10;6.85;;;;;;;18.16;65.10;96102.72;5094240;28;20044;-59
2022/09/11 02:29:06;;;;;;;9.68;7.00;;;;;;;18.05;64.87;96105.28;5094259;28;20052;-60
2022/09/11 02:31:35;;;;;;;13.63;6.22;;;;;;;17.93;65.26;96104.41;5094185;28;20124;-60
2022/09/11 02:34:02;;;;;;;7.35;6.22;;;;;;;17.81;65.99;96107.03;5094064;28;20468;-59
2022/09/11 02:36:56;;;;;;;11.32;6.20;;;;;;;17.73;66.38;96109.38;5094009;28;20080;-59
2022/09/11 02:39:41;;;;;;;8.30;7.50;;;;;;;17.64;66.34;96107.44;5094023;28;20543;-59
2022/09/11 02:42:24;;;;;;;8.77;6.57;;;;;;;17.55;66.15;96108.97;5093922;28;20040;-59
2022/09/11 02:45:04;;;;;;;9.82;6.60;;;;;;;17.54;66.84;96112.53;5093765;28;20048;-59
2022/09/11 02:47:42;;;;;;;12.50;7.30;;;;;;;17.47;67.29;96116.59;5093772;28;20551;-59
2022/09/11 02:50:20;;;;;;;9.50;6.70;;;;;;;17.42;67.06;96115.13;5093719;28;20123;-59
2022/09/11 02:52:54;;;;;;;8.70;6.28;;;;;;;17.39;67.34;96111.84;5093792;28;20496;-59
2022/09/11 02:55:31;;;;;;;9.82;6.45;;;;;;;17.40;67.42;96114.38;5093926;28;20061;-59
2022/09/11 02:58:03;;;;;;;6.47;5.80;;;;;;;17.44;67.44;96115.03;5093798;28;20051;-59
2022/09/11 03:00:32;;;;;;;7.68;5.35;;;;;;;17.46;66.67;96118.38;5093614;28;20080;-61
2022/09/11 03:02:59;;;;;;;8.60;6.13;;;;;;;17.48;67.18;96116.47;5093533;28;20094;-60
2022/09/11 03:05:27;;;;;;;7.43;5.70;;;;;;;17.45;67.44;96121.16;5093641;28;20453;-60
2022/09/11 03:07:55;;;;;;;9.38;5.82;;;;;;;17.43;68.20;96118.63;5093644;28;20069;-60
2022/09/11 03:10:22;;;;;;;8.48;5.72;;;;;;;17.31;67.44;96123.00;5093379;28;20509;-60
2022/09/11 03:12:49;;;;;;;9.45;5.80;;;;;;;17.18;68.16;96120.38;5093399;28;20083;-60
2022/09/11 03:15:16;;;;;;;6.65;5.95;;;;;;;17.09;68.53;96124.53;5093467;28;20437;-60
2022/09/11 03:17:45;;;;;;;6.75;5.68;;;;;;;17.14;69.04;96122.41;5093382;28;20048;-59
2022/09/11 03:20:12;;;;;;;6.60;5.53;;;;;;;17.14;69.27;96126.84;5093427;28;20123;-60
2022/09/11 03:22:39;;;;;;;6.28;5.50;;;;;;;17.12;69.42;96126.09;5092614;28;20559;-60
2022/09/11 03:25:07;;;;;;;7.68;5.35;;;;;;;17.10;69.04;96130.66;5093344;28;20052;-60
2022/09/11 03:27:37;;;;;;;6.57;5.57;;;;;;;17.09;69.07;96131.59;5093363;28;20044;-60
2022/09/11 03:30:05;;;;;;;7.32;5.47;;;;;;;17.03;69.07;96131.06;5093214;28;20132;-60
2022/09/11 03:32:32;;;;;;;6.38;5.40;;;;;;;16.95;69.14;96136.06;5093220;28;20059;-60
2022/09/11 03:35:01;;;;;;;7.15;5.65;;;;;;;16.86;69.98;96131.41;5093122;28;20044;-60
2022/09/11 03:37:28;;;;;;;8.05;5.72;;;;;;;16.80;69.83;96136.16;5093134;28;20048;-60
2022/09/11 03:39:55;;;;;;;12.25;6.07;;;;;;;16.77;69.87;96146.09;5093119;28;20135;-60
2022/09/11 03:42:22;;;;;;;8.85;6.45;;;;;;;16.82;69.96;96154.53;5093133;28;20500;-60
2022/09/11 03:44:49;;;;;;;9.02;5.35;;;;;;;16.74;70.10;96152.41;5093060;28;20550;-60
2022/09/11 03:47:19;;;;;;;8.00;5.72;;;;;;;16.76;70.42;96147.88;5093034;28;20051;-61
2022/09/11 03:49:47;;;;;;;8.30;5.70;;;;;;;16.75;70.42;96151.50;5093256;28;20094;-60
2022/09/11 03:52:15;;;;;;;8.20;6.28;;;;;;;16.65;70.18;96158.34;5093092;28;20076;-60
2022/09/11 03:54:43;;;;;;;8.70;6.03;;;;;;;16.67;70.72;96156.44;5093062;28;20127;-59
2022/09/11 03:57:10;;;;;;;7.30;6.25;;;;;;;16.61;70.86;96154.22;5093011;28;20077;-60
2022/09/11 03:59:38;;;;;;;8.40;5.95;;;;;;;16.52;71.09;96153.91;5093059;28;20048;-60
2022/09/11 04:02:05;;;;;;;8.00;5.88;;;;;;;16.49;71.36;96145.34;5093022;28;20052;-60
2022/09/11 04:04:33;;;;;;;6.57;5.90;;;;;;;16.53;71.21;96150.31;5092841;28;20131;-60
2022/09/11 04:07:00;;;;;;;7.95;6.15;;;;;;;16.55;71.28;96155.50;5092896;28;20501;-61
2022/09/11 04:09:30;;;;;;;7.70;5.90;;;;;;;16.61;71.40;96154.22;5092954;28;20134;-61
2022/09/11 04:11:57;;;;;;;8.20;5.80;;;;;;;16.58;71.34;96157.91;5092577;28;20052;-60
2022/09/11 04:14:24;;;;;;;6.18;5.57;;;;;;;16.62;71.35;96155.94;5092987;28;20128;-60
2022/09/11 04:16:53;;;;;;;9.90;5.95;;;;;;;16.63;71.42;96160.25;5092910;28;20052;-60
2022/09/11 04:19:21;;;;;;;8.55;6.80;;;;;;;16.60;71.57;96165.75;5092872;28;20080;-60
2022/09/11 04:21:48;;;;;;;9.20;6.20;;;;;;;16.50;72.12;96161.06;5092840;28;20044;-60
2022/09/11 04:24:15;;;;;;;8.93;6.25;;;;;;;16.48;72.36;96160.34;5092744;28;21262;-60
2022/09/11 04:26:44;;;;;;;7.20;6.20;;;;;;;16.50;72.31;96165.53;5092793;28;20087;-60
2022/09/11 04:29:11;;;;;;;6.65;5.97;;;;;;;16.51;72.25;96165.44;5092645;28;20048;-59
2022/09/11 04:31:40;;;;;;;7.10;5.60;;;;;;;16.57;71.97;96169.44;5092803;28;20055;-60
2022/09/11 04:34:08;;;;;;;7.53;5.90;;;;;;;16.61;72.37;96168.28;5096084;28;20055;-60
2022/09/11 04:36:35;;;;;;;9.40;6.13;;;;;;;16.68;72.42;96177.47;5096345;28;20044;-60
2022/09/11 04:39:02;;;;;;;14.00;6.13;;;;;;;16.73;71.76;96176.28;5096374;28;20075;-60
2022/09/11 04:41:30;;;;;;;10.32;5.97;;;;;;;16.79;71.94;96170.59;5096307;28;20044;-60
2022/09/11 04:44:00;;;;;;;7.22;6.22;;;;;;;16.94;72.05;96168.69;5096225;28;20577;-60
2022/09/11 04:46:27;;;;;;;11.88;6.43;;;;;;;17.12;71.87;96173.66;5096172;28;20122;-60
2022/09/11 04:48:58;;;;;;;11.23;5.40;;;;;;;17.71;71.03;96164.19;5096169;28;20047;-60
2022/09/11 04:51:26;;;;;;;14.30;5.43;;;;;;;18.55;68.27;96170.44;5096120;28;20055;-59
2022/09/11 04:53:56;;;;;;;6.53;4.80;;;;;;;19.39;64.03;96155.19;5096429;28;20052;-60
2022/09/11 04:56:26;;;;;;;5.07;4.53;;;;;;;20.19;61.54;96158.47;5096134;28;20044;-60
2022/09/11 04:58:55;;;;;;;7.40;4.03;;;;;;;21.02;58.57;96172.00;5096047;28;20064;-60
2022/09/11 05:01:25;;;;;;;5.80;4.10;;;;;;;21.75;56.65;96167.44;5095861;28;20383;-60
2022/09/11 05:03:52;;;;;;;4.47;4.07;;;;;;;22.52;54.71;96162.31;5095772;28;20083;-60
2022/09/11 05:06:20;;;;;;;5.22;3.65;;;;;;;23.25;52.89;96157.34;5095817;28;20048;-61
2022/09/11 05:08:47;;;;;;;7.07;4.00;;;;;;;23.92;50.80;96150.94;5095680;28;20040;-60
2022/09/11 05:11:16;;;;;;;5.80;3.97;;;;;;;24.54;49.82;96149.34;5095470;28;20041;-61
2022/09/11 05:13:44;;;;;;;4.40;3.40;;;;;;;25.02;48.62;96158.84;5095824;28;20387;-61
2022/09/11 05:16:13;;;;;;;5.60;3.88;;;;;;;25.65;47.50;96155.94;5095546;28;20048;-61
2022/09/11 05:18:44;;;;;;;3.87;3.50;;;;;;;25.95;45.69;96159.03;5095828;28;20176;-60
2022/09/11 05:21:12;;;;;;;5.03;3.35;;;;;;;26.59;45.42;96161.13;5095709;28;20091;-61
2022/09/11 05:23:40;;;;;;;3.72;3.42;;;;;;;27.33;43.67;96158.47;5095638;28;20084;-60
2022/09/11 05:26:17;;;;;;;6.30;3.25;;;;;;;27.96;42.38;96157.66;5095628;28;20095;-60
2022/09/11 05:28:44;;;;;;;5.57;3.40;;;;;;;28.56;42.17;96154.38;5095525;28;20048;-61
2022/09/11 05:31:14;;;;;;;5.65;3.05;;;;;;;29.10;41.13;96152.50;5095587;28;20101;-61
2022/09/11 05:33:43;;;;;;;7.03;2.80;;;;;;;29.59;40.57;96161.06;5095361;28;20079;-61
2022/09/11 05:36:12;;;;;;;4.43;3.45;;;;;;;30.09;38.52;96153.13;5095505;28;20048;-59
2022/09/11 05:38:40;;;;;;;4.45;3.15;;;;;;;30.51;38.45;96155.19;5095384;28;20086;-64
2022/09/11 05:41:09;;;;;;;5.47;3.28;;;;;;;31.10;36.93;96153.16;5095170;28;20052;-63
2022/09/11 05:43:37;;;;;;;4.55;3.40;;;;;;;31.66;37.33;96158.63;5094846;28;20135;-60
2022/09/11 05:46:05;;;;;;;4.03;3.05;;;;;;;31.93;36.62;96157.94;5094795;28;20055;-62
2022/09/11 05:48:33;;;;;;;5.28;2.75;;;;;;;32.19;35.51;96159.84;5095046;28;20105;-60
2022/09/11 05:51:06;;;;;;;4.32;3.28;;;;;;;32.40;34.70;96158.84;5095041;28;20044;-59
2022/09/11 05:53:33;;;;;;;5.15;3.50;;;;;;;32.64;33.36;96158.47;5094976;28;20123;-61
2022/09/11 05:56:06;;;;;;;4.57;3.65;;;;;;;32.87;33.51;96155.31;5094940;28;20076;-60
2022/09/11 05:58:33;;;;;;;5.90;3.30;;;;;;;32.97;33.40;96152.19;5095110;28;20097;-59
2022/09/11 06:01:05;;;;;;;5.18;3.80;;;;;;;33.12;32.61;96156.56;5094994;28;20048;-60
2022/09/11 06:03:32;;;;;;;6.45;3.67;;;;;;;33.20;32.22;96166.34;5094970;28;20112;-60
2022/09/11 06:06:01;;;;;;;6.18;3.50;;;;;;;33.31;33.19;96154.84;5094514;28;20500;-61
2022/09/11 06:08:29;;;;;;;7.57;3.92;;;;;;;33.43;33.79;96151.47;5094820;28;20050;-62
2022/09/11 06:10:58;;;;;;;9.30;3.63;;;;;;;33.50;33.15;96155.00;5094515;28;20052;-60
2022/09/11 06:13:26;;;;;;;4.57;3.53;;;;;;;33.67;31.93;96155.38;5094696;28;20127;-61
2022/09/11 06:15:53;;;;;;;6.13;4.18;;;;;;;33.64;33.69;96159.34;5094548;28;20101;-60
2022/09/11 06:18:21;;;;;;;5.40;4.10;;;;;;;33.61;32.48;96151.63;5094580;28;20406;-62
2022/09/11 06:20:56;;;;;;;6.78;3.53;;;;;;;33.69;32.40;96156.00;5094450;28;20127;-62
2022/09/11 06:23:26;;;;;;;4.70;4.00;;;;;;;33.43;30.93;96151.47;5094376;28;20190;-62
2022/09/11 06:25:54;;;;;;;3.67;3.38;;;;;;;33.11;31.78;96157.63;5094194;28;20052;-62
2022/09/11 06:28:23;;;;;;;6.72;3.90;;;;;;;33.11;31.81;96160.31;5094274;28;20062;-62
2022/09/11 06:30:50;;;;;;;6.00;3.60;;;;;;;33.02;31.18;96160.50;5094275;28;20054;-61
2022/09/11 06:33:19;;;;;;;5.28;3.40;;;;;;;32.19;30.88;96154.44;5094233;28;20043;-60
2022/09/11 06:35:57;;;;;;;7.10;3.97;;;;;;;32.12;34.04;96156.31;5094095;28;20055;-61
2022/09/11 06:38:27;;;;;;;7.28;3.63;;;;;;;32.06;32.16;96154.41;5094097;28;20044;-62
2022/09/11 06:40:55;;;;;;;4.73;4.10;;;;;;;32.22;32.40;96162.16;5094074;28;20052;-61
2022/09/11 06:43:22;;;;;;;5.50;3.75;;;;;;;31.53;32.92;96159.41;5094103;28;20040;-60
2022/09/11 06:45:50;;;;;;;4.03;3.53;;;;;;;31.36;33.15;96156.25;5093923;28;20052;-62
2022/09/11 06:48:18;;;;;;;5.20;3.55;;;;;;;31.00;33.87;96168.88;5093927;28;20075;-60
2022/09/11 06:50:46;;;;;;;5.40;3.97;;;;;;;30.88;33.81;96157.78;5093832;28;20043;-61
2022/09/11 06:53:14;;;;;;;5.28;3.45;;;;;;;31.00;35.14;96164.28;5093676;28;20044;-61
2022/09/11 06:55:43;;;;;;;5.57;4.18;;;;;;;31.00;34.83;96160.78;5093376;28;20062;-62
2022/09/11 06:58:10;;;;;;;5.15;4.05;;;;;;;31.00;34.81;96167.00;5093490;28;20048;-61
2022/09/11 07:00:38;;;;;;;5.03;3.60;;;;;;;31.18;34.58;96154.84;5093695;28;20048;-62
2022/09/11 07:03:06;;;;;;;10.40;4.03;;;;;;;31.34;33.59;96161.81;5093594;28;20044;-62
2022/09/11 07:05:33;;;;;;;7.13;4.05;;;;;;;31.11;34.76;96157.50;5096092;28;20051;-61
2022/09/11 07:08:00;;;;;;;8.98;3.80;;;;;;;31.05;33.47;96165.56;5098656;28;20055;-62
2022/09/11 07:10:27;;;;;;;4.93;3.40;;;;;;;30.72;34.80;96169.66;5093361;28;20469;-61
2022/09/11 07:12:56;;;;;;;5.25;3.60;;;;;;;30.85;34.97;96172.50;5093450;28;20052;-62
2022/09/11 07:15:24;;;;;;;6.57;3.88;;;;;;;31.01;34.70;96178.63;5093501;28;20557;-61
2022/09/11 07:17:51;;;;;;;6.88;3.60;;;;;;;30.86;34.50;96176.88;5093395;28;20131;-61
2022/09/11 07:20:18;;;;;;;4.72;3.97;;;;;;;30.75;35.12;96186.31;5093133;28;20044;-61
2022/09/11 07:22:45;;;;;;;7.85;4.00;;;;;;;30.62;34.49;96172.72;5093356;28;20044;-61
2022/09/11 07:25:14;;;;;;;5.93;4.07;;;;;;;30.65;34.32;96180.41;5093280;28;20059;-61
2022/09/11 07:27:42;;;;;;;4.93;3.63;;;;;;;30.83;35.25;96177.28;5093515;28;20135;-62
2022/09/11 07:30:13;;;;;;;7.53;3.83;;;;;;;31.12;35.01;96177.25;5093412;28;20044;-60
2022/09/11 07:32:40;;;;;;;10.30;3.78;;;;;;;31.21;34.12;96184.16;5093645;28;20044;-61
2022/09/11 07:35:08;;;;;;;7.13;3.65;;;;;;;31.36;34.07;96180.53;5093846;28;20040;-65
2022/09/11 07:37:36;;;;;;;5.70;3.47;;;;;;;31.48;32.73;96188.91;5093489;28;20507;-61
2022/09/11 07:40:04;;;;;;;7.25;4.20;;;;;;;31.27;33.33;96182.50;5093411;28;20075;-61
2022/09/11 07:42:32;;;;;;;5.82;3.88;;;;;;;31.21;33.50;96180.63;5093163;28;20048;-61
2022/09/11 07:44:59;;;;;;;5.22;3.40;;;;;;;31.01;34.37;96184.03;5093046;28;20047;-61
2022/09/11 07:47:28;;;;;;;5.50;3.45;;;;;;;31.06;33.54;96186.97;5093197;28;20044;-61
2022/09/11 07:49:55;;;;;;;4.22;3.40;;;;;;;31.34;33.75;96185.28;5093090;28;20093;-61
2022/09/11 07:52:23;;;;;;;4.05;3.15;;;;;;;31.64;33.42;96195.84;5092919;28;20040;-61
2022/09/11 07:54:51;;;;;;;6.07;3.70;;;;;;;31.74;32.72;96193.59;5093030;28;20048;-62
2022/09/11 07:57:19;;;;;;;4.53;3.20;;;;;;;31.76;31.46;96188.00;5093494;28;20080;-61
2022/09/11 07:59:46;;;;;;;3.50;3.20;;;;;;;30.85;31.69;96195.97;5093184;28;20087;-61
2022/09/11 08:02:14;;;;;;;5.63;3.40;;;;;;;30.43;34.83;96193.09;5093319;28;20080;-61
2022/09/11 08:04:45;;;;;;;4.18;3.20;;;;;;;30.08;33.56;96191.88;5093072;28;20055;-61
2022/09/11 08:07:13;;;;;;;5.82;3.55;;;;;;;30.22;34.47;96200.16;5093598;28;20477;-61
2022/09/11 08:09:40;;;;;;;12.30;4.82;;;;;;;30.54;34.49;96200.66;5097172;28;20044;-61
2022/09/11 08:12:07;;;;;;;45.42;12.25;;;;;;;31.01;33.86;96187.56;5096775;28;20444;-61
2022/09/11 08:14:36;;;;;;;12.32;4.53;;;;;;;31.18;33.03;96184.53;5097166;28;20474;-61
2022/09/11 08:17:03;;;;;;;6.35;4.22;;;;;;;31.48;33.22;96186.22;5097005;28;20127;-61
2022/09/11 08:19:30;;;;;;;8.00;4.28;;;;;;;31.52;32.04;96185.59;5096794;28;20493;-60
2022/09/11 08:21:59;;;;;;;6.13;3.28;;;;;;;31.64;30.95;96185.03;5097029;28;20090;-61
2022/09/11 08:24:26;;;;;;;7.20;3.45;;;;;;;31.33;31.93;96181.72;5096804;28;20506;-60
2022/09/11 08:26:53;;;;;;;5.03;2.95;;;;;;;31.05;31.25;96176.34;5096786;28;20103;-61
2022/09/11 08:29:20;;;;;;;2.92;2.63;;;;;;;30.97;32.32;96171.97;5096753;28;20474;-61
2022/09/11 08:31:48;;;;;;;4.68;3.25;;;;;;;30.84;32.72;96173.53;5096962;28;20075;-61
2022/09/11 08:34:15;;;;;;;5.82;3.25;;;;;;;30.66;36.86;96168.59;5096718;28;20450;-61
2022/09/11 08:36:43;;;;;;;7.35;3.40;;;;;;;30.76;35.30;96160.19;5096615;28;20044;-60
2022/09/11 08:39:12;;;;;;;5.72;2.88;;;;;;;31.06;33.48;96153.75;5096350;28;20111;-61
2022/09/11 08:41:46;;;;;;;8.13;3.13;;;;;;;31.22;33.39;96158.00;5096355;28;20044;-60
2022/09/11 08:44:20;;;;;;;5.20;3.28;;;;;;;31.58;33.23;96150.72;5096304;28;20055;-60
2022/09/11 08:46:50;;;;;;;8.48;3.47;;;;;;;31.97;32.99;96151.91;5096359;28;20056;-61
2022/09/11 08:49:23;;;;;;;9.45;5.95;;;;;;;31.69;32.29;96152.81;5096512;28;20063;-61
2022/09/11 08:51:51;;;;;;;20.20;13.88;;;;;;;31.66;31.37;96142.41;5096286;28;20044;-61
2022/09/11 08:54:33;;;;;;;23.27;16.58;;;;;;;31.65;31.27;96140.75;5096169;28;20105;-61
2022/09/11 08:57:08;;;;;;;7.53;5.25;;;;;;;31.69;30.43;96138.50;5096034;28;20059;-60
2022/09/11 09:00:00;;;;;;;19.55;14.93;;;;;;;31.58;31.92;96135.34;5096148;28;20040;-60
2022/09/11 09:02:55;;;;;;;6.28;3.15;;;;;;;30.60;31.34;96136.97;5096009;28;20052;-61
2022/09/11 09:05:33;;;;;;;4.35;2.78;;;;;;;30.19;32.07;96133.13;5095893;28;20048;-60
2022/09/11 09:08:14;;;;;;;8.02;4.28;;;;;;;30.51;33.22;96128.19;5095869;28;20040;-61
2022/09/11 09:10:51;;;;;;;4.20;3.78;;;;;;;30.85;33.53;96118.50;5095505;28;20060;-60
2022/09/11 09:13:36;;;;;;;8.10;3.28;;;;;;;31.24;32.31;96115.44;5095784;28;20048;-61
2022/09/11 09:16:14;;;;;;;3.20;2.67;;;;;;;31.32;31.85;96115.25;5095729;28;20055;-61
2022/09/11 09:18:46;;;;;;;4.75;3.80;;;;;;;31.31;32.03;96107.34;5095043;28;20146;-60
2022/09/11 09:21:16;;;;;;;4.15;3.10;;;;;;;31.27;31.13;96110.44;5095423;28;20151;-60
2022/09/11 09:23:49;;;;;;;4.30;2.45;;;;;;;31.18;31.00;96111.63;5095547;28;20131;-60
2022/09/11 09:26:19;;;;;;;5.97;2.70;;;;;;;31.37;32.22;96111.97;5095724;28;20051;-60
2022/09/11 09:28:49;;;;;;;4.32;3.53;;;;;;;31.71;31.98;96101.28;5095574;28;20055;-61
2022/09/11 09:31:20;;;;;;;5.43;2.80;;;;;;;31.88;31.39;96101.75;5095397;28;20398;-61
2022/09/11 09:33:52;;;;;;;4.32;2.85;;;;;;;31.48;31.56;96105.97;5095355;28;20109;-60
2022/09/11 09:36:24;;;;;;;4.10;2.78;;;;;;;31.54;32.37;96101.63;5095337;28;20066;-61
2022/09/11 09:38:53;;;;;;;6.90;2.83;;;;;;;31.43;32.03;96104.94;5095232;28;20097;-60
2022/09/11 09:42:04;;;;;;;3.63;2.90;;;;;;;30.97;31.60;96099.09;5095293;28;20052;-60
2022/09/11 09:44:53;;;;;;;3.33;2.50;;;;;;;30.56;32.34;96103.34;5059086;28;20074;-61
2022/09/11 09:47:22;;;;;;;7.43;3.92;;;;;;;30.44;32.47;96103.03;5095129;28;20520;-60
2022/09/11 09:49:51;;;;;;;11.60;3.80;;;;;;;30.27;32.74;96109.56;5095169;28;20098;-60
2022/09/11 09:52:21;;;;;;;4.35;2.75;;;;;;;29.91;33.24;96109.59;5093846;28;20486;-60
2022/09/11 09:54:55;;;;;;;6.05;3.20;;;;;;;29.74;34.17;96107.97;5095126;28;20047;-60
2022/09/11 09:57:27;;;;;;;4.78;3.00;;;;;;;29.75;34.44;96089.94;5095043;28;20052;-60
2022/09/11 10:00:04;;;;;;;8.55;3.50;;;;;;;29.97;33.84;96093.50;5094941;28;20397;-60
2022/09/11 10:02:40;;;;;;;3.45;2.60;;;;;;;29.92;31.71;96085.16;5094839;28;20135;-60
2022/09/11 10:05:16;;;;;;;3.92;2.63;;;;;;;29.88;32.15;96078.47;5094647;28;20134;-60
2022/09/11 10:07:50;;;;;;;3.30;3.00;;;;;;;29.85;32.88;96085.09;5094738;28;20076;-60
2022/09/11 10:10:30;;;;;;;7.55;2.90;;;;;;;29.63;32.14;96086.94;5094402;28;20099;-60
2022/09/11 10:13:00;;;;;;;9.88;4.50;;;;;;;29.32;36.39;96088.84;5094773;28;20087;-60
2022/09/11 10:15:29;;;;;;;5.43;2.90;;;;;;;29.42;34.21;96076.91;5094827;28;20058;-60
2022/09/11 10:18:24;;;;;;;4.38;3.40;;;;;;;29.55;33.11;96079.78;5094772;28;20084;-60
2022/09/11 10:20:51;;;;;;;5.55;2.90;;;;;;;29.79;33.52;96077.75;5094509;28;20055;-60
2022/09/11 10:23:24;;;;;;;3.67;2.85;;;;;;;30.10;33.21;96068.50;5094564;28;20407;-61
2022/09/11 10:25:52;;;;;;;6.68;3.38;;;;;;;30.29;34.36;96071.63;5094200;28;20094;-60
2022/09/11 10:28:27;;;;;;;5.75;3.00;;;;;;;30.49;32.99;96071.75;5094395;28;20047;-61
2022/09/11 10:31:01;;;;;;;6.50;3.10;;;;;;;30.66;32.36;96074.16;5093991;28;20505;-60
2022/09/11 10:33:31;;;;;;;6.00;3.45;;;;;;;30.63;29.87;96063.75;5094181;28;20101;-60
2022/09/11 10:36:00;;;;;;;5.63;2.60;;;;;;;30.23;31.19;96061.59;5094309;28;20048;-60
2022/09/11 10:38:32;;;;;;;4.47;2.88;;;;;;;29.61;33.40;96068.25;5094236;28;20113;-60
2022/09/11 10:41:08;;;;;;;4.70;3.00;;;;;;;29.26;33.52;96071.56;5094083;28;20050;-60
2022/09/11 10:43:43;;;;;;;5.07;3.03;;;;;;;28.91;33.18;96076.69;5094068;28;20074;-60
2022/09/11 10:46:28;;;;;;;3.90;2.72;;;;;;;28.67;33.92;96059.78;5093875;28;20056;-60
2022/09/11 10:48:58;;;;;;;3.75;2.85;;;;;;;28.57;33.91;96059.22;5094023;28;20044;-60
2022/09/11 10:51:28;;;;;;;5.38;2.75;;;;;;;28.54;34.71;96063.13;5093793;28;20478;-60
2022/09/11 10:54:13;;;;;;;5.13;3.25;;;;;;;28.43;35.66;96056.34;5093835;28;20051;-60
2022/09/11 10:56:53;;;;;;;14.15;5.95;;;;;;;28.43;37.15;96053.66;5093937;28;20044;-60
2022/09/11 10:59:31;;;;;;;5.97;3.30;;;;;;;28.43;36.29;96048.28;5093839;28;20131;-60
2022/09/11 11:02:02;;;;;;;3.95;3.53;;;;;;;28.48;38.32;96061.97;5093720;28;20048;-60
2022/09/11 11:04:32;;;;;;;10.43;5.45;;;;;;;28.46;37.28;96053.28;5093699;28;20054;-60
2022/09/11 11:07:11;;;;;;;6.38;3.63;;;;;;;28.42;38.23;96052.00;5093587;28;20581;-60
2022/09/11 11:09:55;;;;;;;7.63;3.95;;;;;;;28.33;40.97;96059.31;5093530;28;20520;-60
2022/09/11 11:12:42;;;;;;;4.88;3.55;;;;;;;28.29;41.22;96055.28;5053580;28;20070;-60
2022/09/11 11:15:25;;;;;;;9.60;3.42;;;;;;;28.23;42.44;96051.44;5053270;28;20048;-60
2022/09/11 11:18:13;;;;;;;4.15;3.17;;;;;;;28.17;40.82;96052.16;5053183;28;20553;-60
2022/09/11 11:20:50;;;;;;;3.42;2.75;;;;;;;28.05;38.81;96054.47;5053127;28;20045;-60
2022/09/11 11:23:34;;;;;;;6.10;3.13;;;;;;;28.21;37.91;96044.59;5053188;28;20083;-60
2022/09/11 11:26:15;;;;;;;5.97;3.15;;;;;;;28.44;37.20;96038.38;5053065;28;20135;-60
2022/09/11 11:29:00;;;;;;;3.72;3.10;;;;;;;28.67;35.85;96043.66;5053189;28;20048;-60
2022/09/11 11:31:42;;;;;;;7.97;3.35;;;;;;;28.87;35.73;96030.47;5052980;28;20052;-60
2022/09/11 11:34:25;;;;;;;5.25;3.30;;;;;;;28.91;34.22;96030.09;5053185;28;20053;-60
2022/09/11 11:37:00;;;;;;;3.13;2.67;;;;;;;28.47;34.18;96029.94;5052934;28;20080;-59
2022/09/11 11:39:32;;;;;;;4.88;3.42;;;;;;;27.99;36.32;96028.34;5053025;28;20045;-59
2022/09/11 11:42:11;;;;;;;3.50;3.00;;;;;;;27.88;37.04;96040.34;5053051;28;20083;-60
2022/09/11 11:44:46;;;;;;;3.40;2.75;;;;;;;27.83;36.10;96026.59;5057456;28;20080;-60
2022/09/11 11:47:16;;;;;;;3.20;2.90;;;;;;;27.85;37.11;96024.56;5057148;28;20136;-60
2022/09/11 11:49:52;;;;;;;;;;;;;;;27.99;35.62;96028.34;5057552;28;20049;-60
2022/09/11 11:52:32;;;;;;;3.63;2.97;;;;;;;28.18;37.53;96016.22;5056871;28;19921;-60